sensor_id;sensor_type;location;lat;lon;timestamp;temperature;humidity
17992;DHT22;9121;50.926;5.340;2023-03-23T00:01:24;13.40;99.90
17992;DHT22;9121;50.926;5.340;2023-03-23T00:03:53;13.40;99.90
17992;DHT22;9121;50.926;5.340;2023-03-23T00:06:24;13.40;99.90
17992;DHT22;9121;50.926;5.340;2023-03-23T00:08:52;13.40;99.90
17992;DHT22;9121;50.926;5.340;2023-03-23T00:11:25;13.40;99.90
17992;DHT22;9121;50.926;5.340;2023-03-23T00:13:56;13.40;99.90
17992;DHT22;9121;50.926;5.340;2023-03-23T00:16:27;13.40;99.90
17992;DHT22;9121;50.926;5.340;2023-03-23T00:18:57;13.40;99.90
17992;DHT22;9121;50.926;5.340;2023-03-23T00:21:25;13.40;99.90
17992;DHT22;9121;50.926;5.340;2023-03-23T00:23:59;13.40;99.90
17992;DHT22;9121;50.926;5.340;2023-03-23T00:26:29;13.40;99.90
17992;DHT22;9121;50.926;5.340;2023-03-23T00:29:00;13.40;99.90
17992;DHT22;9121;50.926;5.340;2023-03-23T00:31:27;13.40;99.90
17992;DHT22;9121;50.926;5.340;2023-03-23T00:33:57;13.40;99.90
17992;DHT22;9121;50.926;5.340;2023-03-23T00:36:26;13.40;99.90
17992;DHT22;9121;50.926;5.340;2023-03-23T00:38:54;13.50;99.90
17992;DHT22;9121;50.926;5.340;2023-03-23T00:41:25;13.40;99.90
17992;DHT22;9121;50.926;5.340;2023-03-23T00:43:56;13.40;99.90
17992;DHT22;9121;50.926;5.340;2023-03-23T00:46:23;13.40;99.90
17992;DHT22;9121;50.926;5.340;2023-03-23T00:48:50;13.40;99.90
17992;DHT22;9121;50.926;5.340;2023-03-23T00:51:18;13.40;99.90
17992;DHT22;9121;50.926;5.340;2023-03-23T00:53:45;13.40;99.90
17992;DHT22;9121;50.926;5.340;2023-03-23T00:56:12;13.40;99.90
17992;DHT22;9121;50.926;5.340;2023-03-23T00:58:39;13.40;99.90
17992;DHT22;9121;50.926;5.340;2023-03-23T01:01:08;13.40;99.90
17992;DHT22;9121;50.926;5.340;2023-03-23T01:03:35;13.40;99.90
17992;DHT22;9121;50.926;5.340;2023-03-23T01:06:07;13.40;99.90
17992;DHT22;9121;50.926;5.340;2023-03-23T01:08:38;13.40;99.90
17992;DHT22;9121;50.926;5.340;2023-03-23T01:11:11;13.40;99.90
17992;DHT22;9121;50.926;5.340;2023-03-23T01:13:38;13.40;99.90
17992;DHT22;9121;50.926;5.340;2023-03-23T01:16:07;13.40;99.90
17992;DHT22;9121;50.926;5.340;2023-03-23T01:18:35;13.30;99.90
17992;DHT22;9121;50.926;5.340;2023-03-23T01:21:04;13.30;99.90
17992;DHT22;9121;50.926;5.340;2023-03-23T01:23:32;13.30;99.90
17992;DHT22;9121;50.926;5.340;2023-03-23T01:26:03;13.30;99.90
17992;DHT22;9121;50.926;5.340;2023-03-23T01:28:30;13.30;99.90
17992;DHT22;9121;50.926;5.340;2023-03-23T01:31:00;13.30;99.90
17992;DHT22;9121;50.926;5.340;2023-03-23T01:33:28;13.20;99.90
17992;DHT22;9121;50.926;5.340;2023-03-23T01:35:56;13.20;99.90
17992;DHT22;9121;50.926;5.340;2023-03-23T01:38:23;13.20;99.90
17992;DHT22;9121;50.926;5.340;2023-03-23T01:40:50;13.20;99.90
17992;DHT22;9121;50.926;5.340;2023-03-23T01:43:17;13.30;99.90
17992;DHT22;9121;50.926;5.340;2023-03-23T01:45:44;13.20;99.90
17992;DHT22;9121;50.926;5.340;2023-03-23T01:48:16;13.20;99.90
17992;DHT22;9121;50.926;5.340;2023-03-23T01:50:52;13.20;99.90
17992;DHT22;9121;50.926;5.340;2023-03-23T01:53:22;13.20;99.90
17992;DHT22;9121;50.926;5.340;2023-03-23T01:55:52;13.20;99.90
17992;DHT22;9121;50.926;5.340;2023-03-23T01:58:24;13.10;99.90
17992;DHT22;9121;50.926;5.340;2023-03-23T02:00:53;13.10;99.90
17992;DHT22;9121;50.926;5.340;2023-03-23T02:03:22;13.10;99.90
17992;DHT22;9121;50.926;5.340;2023-03-23T02:05:51;13.20;99.90
17992;DHT22;9121;50.926;5.340;2023-03-23T02:08:18;13.20;99.90
17992;DHT22;9121;50.926;5.340;2023-03-23T02:10:46;13.20;99.90
17992;DHT22;9121;50.926;5.340;2023-03-23T02:13:13;13.20;99.90
17992;DHT22;9121;50.926;5.340;2023-03-23T02:15:50;13.20;99.90
17992;DHT22;9121;50.926;5.340;2023-03-23T02:18:38;13.20;99.90
17992;DHT22;9121;50.926;5.340;2023-03-23T02:21:39;13.10;99.90
17992;DHT22;9121;50.926;5.340;2023-03-23T02:27:18;13.10;99.90
17992;DHT22;9121;50.926;5.340;2023-03-23T02:29:56;13.10;99.90
17992;DHT22;9121;50.926;5.340;2023-03-23T02:32:50;13.20;99.90
17992;DHT22;9121;50.926;5.340;2023-03-23T02:35:29;13.20;99.90
17992;DHT22;9121;50.926;5.340;2023-03-23T02:38:02;13.10;99.90
17992;DHT22;9121;50.926;5.340;2023-03-23T02:40:35;13.20;99.90
17992;DHT22;9121;50.926;5.340;2023-03-23T02:43:07;13.20;99.90
17992;DHT22;9121;50.926;5.340;2023-03-23T02:45:36;13.20;99.90
17992;DHT22;9121;50.926;5.340;2023-03-23T02:48:05;13.20;99.90
17992;DHT22;9121;50.926;5.340;2023-03-23T02:50:35;13.20;99.90
17992;DHT22;9121;50.926;5.340;2023-03-23T02:53:07;13.20;99.90
17992;DHT22;9121;50.926;5.340;2023-03-23T02:55:36;13.20;99.90
17992;DHT22;9121;50.926;5.340;2023-03-23T02:58:07;13.20;99.90
17992;DHT22;9121;50.926;5.340;2023-03-23T03:00:35;13.30;99.90
17992;DHT22;9121;50.926;5.340;2023-03-23T03:03:04;13.30;99.90
17992;DHT22;9121;50.926;5.340;2023-03-23T03:05:40;13.30;99.90
17992;DHT22;9121;50.926;5.340;2023-03-23T03:08:15;13.20;99.90
17992;DHT22;9121;50.926;5.340;2023-03-23T03:10:50;13.30;99.90
17992;DHT22;9121;50.926;5.340;2023-03-23T03:13:25;13.30;99.90
17992;DHT22;9121;50.926;5.340;2023-03-23T03:15:59;13.30;99.90
17992;DHT22;9121;50.926;5.340;2023-03-23T03:18:30;13.30;99.90
17992;DHT22;9121;50.926;5.340;2023-03-23T03:21:02;13.30;99.90
17992;DHT22;9121;50.926;5.340;2023-03-23T03:23:32;13.30;99.90
17992;DHT22;9121;50.926;5.340;2023-03-23T03:26:00;13.30;99.90
17992;DHT22;9121;50.926;5.340;2023-03-23T03:28:31;13.20;99.90
17992;DHT22;9121;50.926;5.340;2023-03-23T03:31:02;13.30;99.90
17992;DHT22;9121;50.926;5.340;2023-03-23T03:33:30;13.30;99.90
17992;DHT22;9121;50.926;5.340;2023-03-23T03:36:02;13.30;99.90
17992;DHT22;9121;50.926;5.340;2023-03-23T03:38:29;13.30;99.90
17992;DHT22;9121;50.926;5.340;2023-03-23T03:40:56;13.30;99.90
17992;DHT22;9121;50.926;5.340;2023-03-23T03:43:23;13.30;99.90
17992;DHT22;9121;50.926;5.340;2023-03-23T03:45:50;13.30;99.90
17992;DHT22;9121;50.926;5.340;2023-03-23T03:48:17;13.30;99.90
17992;DHT22;9121;50.926;5.340;2023-03-23T03:50:44;13.20;99.90
17992;DHT22;9121;50.926;5.340;2023-03-23T03:53:13;13.30;99.90
17992;DHT22;9121;50.926;5.340;2023-03-23T03:55:40;13.30;99.90
17992;DHT22;9121;50.926;5.340;2023-03-23T03:58:10;13.30;99.90
17992;DHT22;9121;50.926;5.340;2023-03-23T04:00:38;13.20;99.90
17992;DHT22;9121;50.926;5.340;2023-03-23T04:03:06;13.20;99.90
17992;DHT22;9121;50.926;5.340;2023-03-23T04:05:34;13.30;99.90
17992;DHT22;9121;50.926;5.340;2023-03-23T04:08:02;13.30;99.90
17992;DHT22;9121;50.926;5.340;2023-03-23T04:10:31;13.30;99.90
17992;DHT22;9121;50.926;5.340;2023-03-23T04:12:59;13.20;99.90
17992;DHT22;9121;50.926;5.340;2023-03-23T04:15:26;13.20;99.90
17992;DHT22;9121;50.926;5.340;2023-03-23T04:17:53;13.30;99.90
17992;DHT22;9121;50.926;5.340;2023-03-23T04:20:22;13.30;99.90
17992;DHT22;9121;50.926;5.340;2023-03-23T04:22:49;13.20;99.90
17992;DHT22;9121;50.926;5.340;2023-03-23T04:25:19;13.30;99.90
17992;DHT22;9121;50.926;5.340;2023-03-23T04:27:49;13.20;99.90
17992;DHT22;9121;50.926;5.340;2023-03-23T04:30:19;13.30;99.90
17992;DHT22;9121;50.926;5.340;2023-03-23T04:32:47;13.20;99.90
17992;DHT22;9121;50.926;5.340;2023-03-23T04:35:17;13.20;99.90
17992;DHT22;9121;50.926;5.340;2023-03-23T04:37:45;13.20;99.90
17992;DHT22;9121;50.926;5.340;2023-03-23T04:40:12;13.20;99.90
17992;DHT22;9121;50.926;5.340;2023-03-23T04:42:41;13.20;99.90
17992;DHT22;9121;50.926;5.340;2023-03-23T04:45:13;13.20;99.90
17992;DHT22;9121;50.926;5.340;2023-03-23T04:47:41;13.20;99.90
17992;DHT22;9121;50.926;5.340;2023-03-23T04:50:19;13.20;99.90
17992;DHT22;9121;50.926;5.340;2023-03-23T04:52:46;13.20;99.90
17992;DHT22;9121;50.926;5.340;2023-03-23T04:55:14;13.10;99.90
17992;DHT22;9121;50.926;5.340;2023-03-23T04:57:41;13.10;99.90
17992;DHT22;9121;50.926;5.340;2023-03-23T05:00:09;13.10;99.90
17992;DHT22;9121;50.926;5.340;2023-03-23T05:02:41;13.10;99.90
17992;DHT22;9121;50.926;5.340;2023-03-23T05:05:10;13.10;99.90
17992;DHT22;9121;50.926;5.340;2023-03-23T05:07:38;13.10;99.90
17992;DHT22;9121;50.926;5.340;2023-03-23T05:10:06;13.10;99.90
17992;DHT22;9121;50.926;5.340;2023-03-23T05:12:34;13.10;99.90
17992;DHT22;9121;50.926;5.340;2023-03-23T05:15:01;13.10;99.90
17992;DHT22;9121;50.926;5.340;2023-03-23T05:17:29;13.10;99.90
17992;DHT22;9121;50.926;5.340;2023-03-23T05:19:59;13.10;99.90
17992;DHT22;9121;50.926;5.340;2023-03-23T05:22:27;13.10;99.90
17992;DHT22;9121;50.926;5.340;2023-03-23T05:24:54;13.00;99.90
17992;DHT22;9121;50.926;5.340;2023-03-23T05:27:21;13.00;99.90
17992;DHT22;9121;50.926;5.340;2023-03-23T05:29:48;13.00;99.90
17992;DHT22;9121;50.926;5.340;2023-03-23T05:32:15;13.00;99.90
17992;DHT22;9121;50.926;5.340;2023-03-23T05:34:42;13.00;99.90
17992;DHT22;9121;50.926;5.340;2023-03-23T05:37:11;13.00;99.90
17992;DHT22;9121;50.926;5.340;2023-03-23T05:39:39;13.00;99.90
17992;DHT22;9121;50.926;5.340;2023-03-23T05:42:06;13.00;99.90
17992;DHT22;9121;50.926;5.340;2023-03-23T05:44:34;12.90;99.90
17992;DHT22;9121;50.926;5.340;2023-03-23T05:47:02;12.90;99.90
17992;DHT22;9121;50.926;5.340;2023-03-23T05:49:29;12.90;99.90
17992;DHT22;9121;50.926;5.340;2023-03-23T05:51:56;12.90;99.90
17992;DHT22;9121;50.926;5.340;2023-03-23T05:54:25;12.90;99.90
17992;DHT22;9121;50.926;5.340;2023-03-23T05:56:52;12.90;99.90
17992;DHT22;9121;50.926;5.340;2023-03-23T05:59:19;12.90;99.90
17992;DHT22;9121;50.926;5.340;2023-03-23T06:01:46;12.90;99.90
17992;DHT22;9121;50.926;5.340;2023-03-23T06:04:13;12.90;99.90
17992;DHT22;9121;50.926;5.340;2023-03-23T06:06:42;12.90;99.90
17992;DHT22;9121;50.926;5.340;2023-03-23T06:09:09;12.90;99.90
17992;DHT22;9121;50.926;5.340;2023-03-23T06:11:38;13.00;99.90
17992;DHT22;9121;50.926;5.340;2023-03-23T06:14:05;13.00;99.90
17992;DHT22;9121;50.926;5.340;2023-03-23T06:16:32;13.00;99.90
17992;DHT22;9121;50.926;5.340;2023-03-23T06:18:59;13.00;99.90
17992;DHT22;9121;50.926;5.340;2023-03-23T06:21:27;13.00;99.90
17992;DHT22;9121;50.926;5.340;2023-03-23T06:23:54;13.00;99.90
17992;DHT22;9121;50.926;5.340;2023-03-23T06:26:24;13.20;99.90
17992;DHT22;9121;50.926;5.340;2023-03-23T06:28:53;13.20;99.90
17992;DHT22;9121;50.926;5.340;2023-03-23T06:31:20;13.20;99.90
17992;DHT22;9121;50.926;5.340;2023-03-23T06:33:47;13.20;99.90
17992;DHT22;9121;50.926;5.340;2023-03-23T06:36:14;13.10;99.90
17992;DHT22;9121;50.926;5.340;2023-03-23T06:38:42;13.10;99.90
17992;DHT22;9121;50.926;5.340;2023-03-23T06:41:09;13.10;99.90
17992;DHT22;9121;50.926;5.340;2023-03-23T06:43:36;13.10;99.90
17992;DHT22;9121;50.926;5.340;2023-03-23T06:46:06;13.10;99.90
17992;DHT22;9121;50.926;5.340;2023-03-23T06:48:33;13.10;99.90
17992;DHT22;9121;50.926;5.340;2023-03-23T06:51:01;13.10;99.90
17992;DHT22;9121;50.926;5.340;2023-03-23T06:53:28;13.20;99.90
17992;DHT22;9121;50.926;5.340;2023-03-23T06:55:56;13.20;99.90
17992;DHT22;9121;50.926;5.340;2023-03-23T06:58:23;13.50;99.90
17992;DHT22;9121;50.926;5.340;2023-03-23T07:00:53;13.40;99.90
17992;DHT22;9121;50.926;5.340;2023-03-23T07:03:23;13.40;99.90
17992;DHT22;9121;50.926;5.340;2023-03-23T07:05:51;13.30;99.90
17992;DHT22;9121;50.926;5.340;2023-03-23T07:08:18;13.30;99.90
17992;DHT22;9121;50.926;5.340;2023-03-23T07:10:45;13.30;99.90
17992;DHT22;9121;50.926;5.340;2023-03-23T07:13:12;13.30;99.90
17992;DHT22;9121;50.926;5.340;2023-03-23T07:15:39;13.40;99.90
17992;DHT22;9121;50.926;5.340;2023-03-23T07:18:06;13.40;99.90
17992;DHT22;9121;50.926;5.340;2023-03-23T07:20:34;13.40;99.90
17992;DHT22;9121;50.926;5.340;2023-03-23T07:23:02;13.30;99.90
17992;DHT22;9121;50.926;5.340;2023-03-23T07:25:30;13.30;99.90
17992;DHT22;9121;50.926;5.340;2023-03-23T07:27:58;13.30;99.90
17992;DHT22;9121;50.926;5.340;2023-03-23T07:30:25;13.40;99.90
17992;DHT22;9121;50.926;5.340;2023-03-23T07:32:54;13.40;99.90
17992;DHT22;9121;50.926;5.340;2023-03-23T07:35:21;13.40;99.90
17992;DHT22;9121;50.926;5.340;2023-03-23T07:37:50;13.50;99.90
17992;DHT22;9121;50.926;5.340;2023-03-23T07:40:17;13.50;99.90
17992;DHT22;9121;50.926;5.340;2023-03-23T07:42:46;13.60;99.90
17992;DHT22;9121;50.926;5.340;2023-03-23T07:45:15;13.60;99.90
17992;DHT22;9121;50.926;5.340;2023-03-23T07:47:42;13.50;99.90
17992;DHT22;9121;50.926;5.340;2023-03-23T07:50:10;13.60;99.90
17992;DHT22;9121;50.926;5.340;2023-03-23T07:52:38;13.60;99.90
17992;DHT22;9121;50.926;5.340;2023-03-23T07:55:10;13.60;99.90
17992;DHT22;9121;50.926;5.340;2023-03-23T07:57:43;13.60;99.90
17992;DHT22;9121;50.926;5.340;2023-03-23T08:00:11;13.60;99.90
17992;DHT22;9121;50.926;5.340;2023-03-23T08:02:41;13.60;99.90
17992;DHT22;9121;50.926;5.340;2023-03-23T08:05:08;13.50;99.90
17992;DHT22;9121;50.926;5.340;2023-03-23T08:07:35;13.50;99.90
17992;DHT22;9121;50.926;5.340;2023-03-23T08:10:03;13.50;99.90
17992;DHT22;9121;50.926;5.340;2023-03-23T08:12:31;13.50;99.90
17992;DHT22;9121;50.926;5.340;2023-03-23T08:14:58;13.50;99.90
17992;DHT22;9121;50.926;5.340;2023-03-23T08:17:25;13.50;99.90
17992;DHT22;9121;50.926;5.340;2023-03-23T08:19:53;13.40;99.90
17992;DHT22;9121;50.926;5.340;2023-03-23T08:22:20;13.40;99.90
17992;DHT22;9121;50.926;5.340;2023-03-23T08:24:47;13.50;99.90
17992;DHT22;9121;50.926;5.340;2023-03-23T08:27:14;13.50;99.90
17992;DHT22;9121;50.926;5.340;2023-03-23T08:29:44;13.50;99.90
17992;DHT22;9121;50.926;5.340;2023-03-23T08:32:11;13.50;99.90
17992;DHT22;9121;50.926;5.340;2023-03-23T08:34:38;13.50;99.90
17992;DHT22;9121;50.926;5.340;2023-03-23T08:37:05;13.40;99.90
17992;DHT22;9121;50.926;5.340;2023-03-23T08:39:32;13.40;99.90
17992;DHT22;9121;50.926;5.340;2023-03-23T08:41:59;13.40;99.90
17992;DHT22;9121;50.926;5.340;2023-03-23T08:44:26;13.40;99.90
17992;DHT22;9121;50.926;5.340;2023-03-23T08:46:55;13.40;99.90
17992;DHT22;9121;50.926;5.340;2023-03-23T08:49:23;13.20;99.90
17992;DHT22;9121;50.926;5.340;2023-03-23T08:51:51;12.80;99.90
17992;DHT22;9121;50.926;5.340;2023-03-23T08:54:18;12.70;99.90
17992;DHT22;9121;50.926;5.340;2023-03-23T08:56:45;12.90;99.90
17992;DHT22;9121;50.926;5.340;2023-03-23T08:59:12;13.00;99.90
17992;DHT22;9121;50.926;5.340;2023-03-23T09:01:39;13.20;99.90
17992;DHT22;9121;50.926;5.340;2023-03-23T09:04:08;13.00;99.90
17992;DHT22;9121;50.926;5.340;2023-03-23T09:06:36;13.10;99.90
17992;DHT22;9121;50.926;5.340;2023-03-23T09:09:03;13.20;99.90
17992;DHT22;9121;50.926;5.340;2023-03-23T09:11:32;13.40;99.90
17992;DHT22;9121;50.926;5.340;2023-03-23T09:13:59;13.40;99.90
17992;DHT22;9121;50.926;5.340;2023-03-23T09:16:27;13.80;99.90
17992;DHT22;9121;50.926;5.340;2023-03-23T09:18:54;15.00;99.90
17992;DHT22;9121;50.926;5.340;2023-03-23T09:21:23;15.00;99.90
17992;DHT22;9121;50.926;5.340;2023-03-23T09:23:50;14.70;99.90
17992;DHT22;9121;50.926;5.340;2023-03-23T09:26:18;14.10;99.90
17992;DHT22;9121;50.926;5.340;2023-03-23T09:28:45;14.40;99.90
17992;DHT22;9121;50.926;5.340;2023-03-23T09:31:12;14.30;99.90
17992;DHT22;9121;50.926;5.340;2023-03-23T09:33:39;14.30;99.90
17992;DHT22;9121;50.926;5.340;2023-03-23T09:36:08;14.10;99.90
17992;DHT22;9121;50.926;5.340;2023-03-23T09:38:39;14.40;99.90
17992;DHT22;9121;50.926;5.340;2023-03-23T09:41:16;14.40;99.90
17992;DHT22;9121;50.926;5.340;2023-03-23T09:43:58;14.20;99.90
17992;DHT22;9121;50.926;5.340;2023-03-23T09:46:47;13.90;99.90
17992;DHT22;9121;50.926;5.340;2023-03-23T09:49:20;13.60;99.90
17992;DHT22;9121;50.926;5.340;2023-03-23T09:51:51;13.30;99.90
17992;DHT22;9121;50.926;5.340;2023-03-23T09:54:23;13.10;99.90
17992;DHT22;9121;50.926;5.340;2023-03-23T09:56:52;13.20;99.90
17992;DHT22;9121;50.926;5.340;2023-03-23T09:59:24;13.30;99.90
17992;DHT22;9121;50.926;5.340;2023-03-23T10:01:53;13.30;99.90
17992;DHT22;9121;50.926;5.340;2023-03-23T10:04:29;13.10;99.90
17992;DHT22;9121;50.926;5.340;2023-03-23T10:06:58;13.00;99.90
17992;DHT22;9121;50.926;5.340;2023-03-23T10:09:28;13.00;99.90
17992;DHT22;9121;50.926;5.340;2023-03-23T10:12:04;13.00;99.90
17992;DHT22;9121;50.926;5.340;2023-03-23T10:14:41;13.20;99.90
17992;DHT22;9121;50.926;5.340;2023-03-23T10:17:14;13.10;99.90
17992;DHT22;9121;50.926;5.340;2023-03-23T10:19:55;13.00;99.90
17992;DHT22;9121;50.926;5.340;2023-03-23T10:22:28;12.90;99.90
17992;DHT22;9121;50.926;5.340;2023-03-23T10:25:03;12.70;99.90
17992;DHT22;9121;50.926;5.340;2023-03-23T10:27:38;12.80;99.90
17992;DHT22;9121;50.926;5.340;2023-03-23T10:30:15;12.90;99.90
17992;DHT22;9121;50.926;5.340;2023-03-23T10:32:50;12.80;99.90
17992;DHT22;9121;50.926;5.340;2023-03-23T10:35:23;12.80;99.90
17992;DHT22;9121;50.926;5.340;2023-03-23T10:37:55;12.70;99.90
17992;DHT22;9121;50.926;5.340;2023-03-23T10:40:27;12.70;99.90
17992;DHT22;9121;50.926;5.340;2023-03-23T10:42:55;12.70;99.90
17992;DHT22;9121;50.926;5.340;2023-03-23T10:45:25;12.80;99.90
17992;DHT22;9121;50.926;5.340;2023-03-23T10:47:58;12.90;99.90
17992;DHT22;9121;50.926;5.340;2023-03-23T10:50:29;12.80;99.90
17992;DHT22;9121;50.926;5.340;2023-03-23T10:52:59;13.10;99.90
17992;DHT22;9121;50.926;5.340;2023-03-23T10:55:37;13.20;99.90
17992;DHT22;9121;50.926;5.340;2023-03-23T10:58:10;13.30;99.90
17992;DHT22;9121;50.926;5.340;2023-03-23T11:00:41;13.20;99.90
17992;DHT22;9121;50.926;5.340;2023-03-23T11:03:27;13.10;99.90
17992;DHT22;9121;50.926;5.340;2023-03-23T11:06:00;13.10;99.90
17992;DHT22;9121;50.926;5.340;2023-03-23T11:08:30;13.00;99.90
17992;DHT22;9121;50.926;5.340;2023-03-23T11:11:08;12.80;99.90
17992;DHT22;9121;50.926;5.340;2023-03-23T11:13:39;12.70;99.90
17992;DHT22;9121;50.926;5.340;2023-03-23T11:16:09;12.50;99.90
17992;DHT22;9121;50.926;5.340;2023-03-23T11:18:38;12.50;99.90
17992;DHT22;9121;50.926;5.340;2023-03-23T11:21:07;12.50;99.90
17992;DHT22;9121;50.926;5.340;2023-03-23T11:23:37;12.60;99.90
17992;DHT22;9121;50.926;5.340;2023-03-23T11:26:13;12.50;99.90
17992;DHT22;9121;50.926;5.340;2023-03-23T11:28:44;12.40;99.90
17992;DHT22;9121;50.926;5.340;2023-03-23T11:31:12;12.30;99.90
17992;DHT22;9121;50.926;5.340;2023-03-23T11:33:47;12.30;99.90
17992;DHT22;9121;50.926;5.340;2023-03-23T11:36:14;12.40;99.90
17992;DHT22;9121;50.926;5.340;2023-03-23T11:38:43;12.50;99.90
17992;DHT22;9121;50.926;5.340;2023-03-23T11:41:16;12.70;99.90
17992;DHT22;9121;50.926;5.340;2023-03-23T11:43:46;13.00;99.90
17992;DHT22;9121;50.926;5.340;2023-03-23T11:46:22;13.20;99.90
17992;DHT22;9121;50.926;5.340;2023-03-23T11:48:55;13.30;99.90
17992;DHT22;9121;50.926;5.340;2023-03-23T11:51:29;13.50;99.90
17992;DHT22;9121;50.926;5.340;2023-03-23T11:54:00;13.90;99.90
17992;DHT22;9121;50.926;5.340;2023-03-23T11:56:34;13.90;99.90
17992;DHT22;9121;50.926;5.340;2023-03-23T11:59:02;13.80;99.90
17992;DHT22;9121;50.926;5.340;2023-03-23T12:01:53;13.70;99.90
17992;DHT22;9121;50.926;5.340;2023-03-23T12:04:35;13.60;99.90
17992;DHT22;9121;50.926;5.340;2023-03-23T12:07:38;13.70;99.90
17992;DHT22;9121;50.926;5.340;2023-03-23T12:10:17;13.90;99.90
17992;DHT22;9121;50.926;5.340;2023-03-23T12:12:55;14.10;99.90
17992;DHT22;9121;50.926;5.340;2023-03-23T12:15:29;14.20;99.90
17992;DHT22;9121;50.926;5.340;2023-03-23T12:18:02;14.30;99.90
17992;DHT22;9121;50.926;5.340;2023-03-23T12:20:41;14.30;99.90
17992;DHT22;9121;50.926;5.340;2023-03-23T12:23:21;14.40;98.50
17992;DHT22;9121;50.926;5.340;2023-03-23T12:26:02;14.50;93.20
17992;DHT22;9121;50.926;5.340;2023-03-23T12:28:51;14.70;92.30
17992;DHT22;9121;50.926;5.340;2023-03-23T12:31:25;14.80;86.20
17992;DHT22;9121;50.926;5.340;2023-03-23T12:34:01;14.80;79.70
17992;DHT22;9121;50.926;5.340;2023-03-23T12:36:43;14.90;78.70
17992;DHT22;9121;50.926;5.340;2023-03-23T12:39:43;14.90;81.80
17992;DHT22;9121;50.926;5.340;2023-03-23T12:42:18;14.80;50.70
17992;DHT22;9121;50.926;5.340;2023-03-23T12:44:50;14.70;70.90
17992;DHT22;9121;50.926;5.340;2023-03-23T12:47:32;14.60;74.00
17992;DHT22;9121;50.926;5.340;2023-03-23T12:50:05;14.60;99.90
17992;DHT22;9121;50.926;5.340;2023-03-23T12:52:38;14.70;96.80
17992;DHT22;9121;50.926;5.340;2023-03-23T12:55:15;14.70;95.10
17992;DHT22;9121;50.926;5.340;2023-03-23T12:57:49;15.10;80.80
17992;DHT22;9121;50.926;5.340;2023-03-23T13:00:21;15.10;61.10
17992;DHT22;9121;50.926;5.340;2023-03-23T13:03:02;16.30;66.10
17992;DHT22;9121;50.926;5.340;2023-03-23T13:05:37;16.40;1.00
17992;DHT22;9121;50.926;5.340;2023-03-23T13:08:13;16.80;1.00
17992;DHT22;9121;50.926;5.340;2023-03-23T13:10:45;17.60;1.00
17992;DHT22;9121;50.926;5.340;2023-03-23T13:13:16;17.70;1.00
17992;DHT22;9121;50.926;5.340;2023-03-23T13:15:54;17.40;1.00
17992;DHT22;9121;50.926;5.340;2023-03-23T13:18:29;16.80;1.00
17992;DHT22;9121;50.926;5.340;2023-03-23T13:21:07;16.60;1.00
17992;DHT22;9121;50.926;5.340;2023-03-23T13:23:39;16.00;1.00
17992;DHT22;9121;50.926;5.340;2023-03-23T13:26:09;15.50;1.00
17992;DHT22;9121;50.926;5.340;2023-03-23T13:28:51;15.60;1.00
17992;DHT22;9121;50.926;5.340;2023-03-23T13:31:26;15.50;1.00
17992;DHT22;9121;50.926;5.340;2023-03-23T13:34:00;15.40;1.00
17992;DHT22;9121;50.926;5.340;2023-03-23T13:36:30;15.00;1.00
17992;DHT22;9121;50.926;5.340;2023-03-23T13:38:59;14.80;48.30
17992;DHT22;9121;50.926;5.340;2023-03-23T13:41:28;14.30;89.20
17992;DHT22;9121;50.926;5.340;2023-03-23T13:44:07;14.00;99.30
17992;DHT22;9121;50.926;5.340;2023-03-23T13:46:54;13.40;99.90
17992;DHT22;9121;50.926;5.340;2023-03-23T13:49:22;13.00;99.90
17992;DHT22;9121;50.926;5.340;2023-03-23T13:52:16;12.90;99.90
17992;DHT22;9121;50.926;5.340;2023-03-23T13:54:45;13.00;99.90
17992;DHT22;9121;50.926;5.340;2023-03-23T13:57:35;13.30;99.90
17992;DHT22;9121;50.926;5.340;2023-03-23T14:00:24;14.10;99.90
17992;DHT22;9121;50.926;5.340;2023-03-23T14:02:59;14.50;99.90
17992;DHT22;9121;50.926;5.340;2023-03-23T14:05:34;15.20;99.90
17992;DHT22;9121;50.926;5.340;2023-03-23T14:08:03;16.00;99.90
17992;DHT22;9121;50.926;5.340;2023-03-23T14:10:38;16.60;99.90
17992;DHT22;9121;50.926;5.340;2023-03-23T14:13:20;16.90;99.90
17992;DHT22;9121;50.926;5.340;2023-03-23T14:15:56;17.20;99.90
17992;DHT22;9121;50.926;5.340;2023-03-23T14:18:30;16.60;42.00
17992;DHT22;9121;50.926;5.340;2023-03-23T14:20:59;16.00;77.10
17992;DHT22;9121;50.926;5.340;2023-03-23T14:23:26;15.50;91.40
17992;DHT22;9121;50.926;5.340;2023-03-23T14:26:00;15.40;96.80
17992;DHT22;9121;50.926;5.340;2023-03-23T14:28:36;15.30;91.10
17992;DHT22;9121;50.926;5.340;2023-03-23T14:31:04;15.30;92.70
17992;DHT22;9121;50.926;5.340;2023-03-23T14:33:33;15.30;90.90
17992;DHT22;9121;50.926;5.340;2023-03-23T14:36:00;15.60;82.20
17992;DHT22;9121;50.926;5.340;2023-03-23T14:38:27;15.70;75.10
17992;DHT22;9121;50.926;5.340;2023-03-23T14:41:02;15.80;79.20
17992;DHT22;9121;50.926;5.340;2023-03-23T14:43:30;16.00;64.90
17992;DHT22;9121;50.926;5.340;2023-03-23T14:46:01;16.00;57.40
17992;DHT22;9121;50.926;5.340;2023-03-23T14:48:30;15.80;56.10
17992;DHT22;9121;50.926;5.340;2023-03-23T14:50:59;15.50;71.40
17992;DHT22;9121;50.926;5.340;2023-03-23T14:53:32;15.30;65.00
17992;DHT22;9121;50.926;5.340;2023-03-23T14:56:02;15.10;77.40
17992;DHT22;9121;50.926;5.340;2023-03-23T14:58:30;15.00;83.70
17992;DHT22;9121;50.926;5.340;2023-03-23T15:00:59;15.00;78.60
17992;DHT22;9121;50.926;5.340;2023-03-23T15:03:30;15.30;85.30
17992;DHT22;9121;50.926;5.340;2023-03-23T15:06:04;15.60;68.10
17992;DHT22;9121;50.926;5.340;2023-03-23T15:08:33;15.50;54.70
17992;DHT22;9121;50.926;5.340;2023-03-23T15:11:07;15.50;47.20
17992;DHT22;9121;50.926;5.340;2023-03-23T15:13:35;15.40;54.60
17992;DHT22;9121;50.926;5.340;2023-03-23T15:16:11;15.40;50.20
17992;DHT22;9121;50.926;5.340;2023-03-23T15:18:40;15.30;58.60
17992;DHT22;9121;50.926;5.340;2023-03-23T15:21:11;15.20;45.30
17992;DHT22;9121;50.926;5.340;2023-03-23T15:23:43;15.20;53.60
17992;DHT22;9121;50.926;5.340;2023-03-23T15:26:26;15.10;55.20
17992;DHT22;9121;50.926;5.340;2023-03-23T15:29:16;15.10;53.90
17992;DHT22;9121;50.926;5.340;2023-03-23T15:31:46;15.20;55.40
17992;DHT22;9121;50.926;5.340;2023-03-23T15:34:24;15.20;51.90
17992;DHT22;9121;50.926;5.340;2023-03-23T15:36:55;15.20;43.50
17992;DHT22;9121;50.926;5.340;2023-03-23T15:39:23;15.20;45.50
17992;DHT22;9121;50.926;5.340;2023-03-23T15:41:52;15.20;45.20
17992;DHT22;9121;50.926;5.340;2023-03-23T15:44:26;15.30;43.30
17992;DHT22;9121;50.926;5.340;2023-03-23T15:47:01;15.20;41.50
17992;DHT22;9121;50.926;5.340;2023-03-23T15:49:30;15.20;45.70
17992;DHT22;9121;50.926;5.340;2023-03-23T15:51:58;15.20;38.40
17992;DHT22;9121;50.926;5.340;2023-03-23T15:54:29;15.30;30.00
17992;DHT22;9121;50.926;5.340;2023-03-23T15:56:57;15.40;12.00
17992;DHT22;9121;50.926;5.340;2023-03-23T15:59:24;15.50;1.00
17992;DHT22;9121;50.926;5.340;2023-03-23T16:01:51;15.60;1.80
17992;DHT22;9121;50.926;5.340;2023-03-23T16:04:19;15.60;1.00
17992;DHT22;9121;50.926;5.340;2023-03-23T16:06:47;15.60;1.00
17992;DHT22;9121;50.926;5.340;2023-03-23T16:09:17;15.60;1.00
17992;DHT22;9121;50.926;5.340;2023-03-23T16:11:45;15.70;1.00
17992;DHT22;9121;50.926;5.340;2023-03-23T16:14:12;15.80;1.00